Other Surface Observations
Issued by NWS Missoula, MT

Current Version | Previous Version | Text Only | Print | Product List | Glossary On
Versions: 1 2 3 4 5 6 7 8 9 10 11 12 13 14 15 16 17 18 19 20 21 22 23 24 25 26 27 28 29 30 31 32 33 34 35 36 37 38 39 40 41 42 43 44 45 46 47 48 49 50
000
SXUS55 KMSO 301903
OSOMSO
MONTANA AWOS SUMMARY
NATIONAL WEATHER SERVICE MISSOULA MT
1203 PM MST SUN APR 30 2017

Montana AWOS Reports

LAUREL      |K6S8 301855Z AUTO 19012G19KT 40SM 15/00 A2992 RMK AO1 T01500000
SCOBEY      |K9S2 301855Z AUTO 22018G26KT 40SM 18/M03 A2982 RMK AO1 T01781027
EKALAKA     |K97M 301855Z AUTO VRB05KT 40SM 15/M06 A2992 RMK AO1 T01501060
TWIN BRIDGES|K7S1 301855Z AUTO 13012G18KT 40SM 12/M03 A2999 RMK AO1 T01171032
ROUNDUP     |KRPX 301855Z AUTO 23011G22KT 40SM 14/01 A2982 RMK AO1 T01440006
PLAINS      |KS34 301855Z AUTO 27011G16KT 10SM 11/06 A3002 RMK AO1 T01110056




USA.gov is the U.S. government's official web portal to all federal, state and local government web resources and services.